Terminal Aerodrome Forecast
Issued by NWS

Home | Current Version | Previous Version | Text Only | Print | Product List | Glossary On
Versions: 1 2 3 4 5 6 7 8 9 10 11 12 13 14 15 16 17 18 19 20 21 22 23 24 25 26 27 28 29 30 31 32 33
000
FTUS41 KGYX 230520
TAFMHT
TAF
KMHT 230520Z 2306/2406 00000KT 6SM BR OVC007
     FM231400 18007KT P6SM BKN015
     FM231800 17006KT P6SM BKN050
     FM240200 13004KT P6SM BKN015
     FM240400 12004KT 6SM BR OVC008=

USA.gov is the U.S. government's official web portal to all federal, state and local government web resources and services.